Time;durP1;ratioP1;P1;durP2;ratioP2;P2;SDS_P1;SDS_P2;PMS_P1;PMS_P2;Temp;Humidity;BMP_temperature;BMP_pressure;BME280_temperature;BME280_humidity;BME280_pressure;Samples;Min_cycle;Max_cycle;Signal;HPM_P1;HPM_P2
2022/08/24 00:00:15;;;;;;;3.28;1.23;;;18.50;98.40;;;;;;4987282;28;20024;-57
2022/08/24 00:02:40;;;;;;;1.88;1.30;;;18.50;98.40;;;;;;4979056;28;20395;-59
2022/08/24 00:05:06;;;;;;;1.65;1.30;;;18.50;98.50;;;;;;4986580;28;20092;-58
2022/08/24 00:07:33;;;;;;;2.47;1.60;;;18.50;98.50;;;;;;4979129;28;20109;-58
2022/08/24 00:09:59;;;;;;;1.30;1.20;;;18.40;98.50;;;;;;4987089;28;20049;-59
2022/08/24 00:12:25;;;;;;;1.83;1.40;;;18.40;98.50;;;;;;4978692;28;20459;-60
2022/08/24 00:14:51;;;;;;;3.42;1.50;;;18.40;98.30;;;;;;4979014;28;20111;-58
2022/08/24 00:17:19;;;;;;;2.17;1.88;;;18.40;98.50;;;;;;4990401;28;20015;-59
2022/08/24 00:19:45;;;;;;;2.65;1.10;;;18.40;98.80;;;;;;4988303;28;20030;-57
2022/08/24 00:22:10;;;;;;;1.45;1.35;;;18.40;98.40;;;;;;4986727;28;20031;-60
2022/08/24 00:24:36;;;;;;;2.22;1.48;;;18.40;98.50;;;;;;4990587;28;20022;-59
2022/08/24 00:27:01;;;;;;;1.85;1.20;;;18.40;98.60;;;;;;4988683;28;20030;-59
2022/08/24 00:29:27;;;;;;;2.75;1.40;;;18.40;98.50;;;;;;4990430;28;20018;-59
2022/08/24 00:31:53;;;;;;;3.50;1.80;;;18.40;98.60;;;;;;4990280;28;20045;-59
2022/08/24 00:34:18;;;;;;;3.00;1.20;;;18.40;98.50;;;;;;4998596;28;20034;-59
2022/08/24 00:36:45;;;;;;;2.55;1.40;;;18.40;98.60;;;;;;5000851;28;20026;-56
2022/08/24 00:39:11;;;;;;;3.15;1.40;;;18.30;98.70;;;;;;4992846;28;20068;-62
2022/08/24 00:41:43;;;;;;;3.70;1.20;;;18.30;98.80;;;;;;5000149;28;20018;-59
2022/08/24 00:44:10;;;;;;;1.48;1.33;;;18.30;98.80;;;;;;4990034;28;20031;-58
2022/08/24 00:46:58;;;;;;;4.97;1.58;;;18.30;98.80;;;;;;4992221;28;20053;-59
2022/08/24 00:49:36;;;;;;;1.77;1.40;;;18.30;98.90;;;;;;4984841;28;20110;-59
2022/08/24 00:52:13;;;;;;;2.22;1.30;;;18.30;99.00;;;;;;4991066;28;20109;-60
2022/08/24 00:54:43;;;;;;;3.53;1.67;;;18.30;99.00;;;;;;4985616;28;20493;-60
2022/08/24 00:57:11;;;;;;;5.15;1.60;;;18.30;99.20;;;;;;4993241;28;20042;-59
2022/08/24 00:59:43;;;;;;;3.20;1.20;;;18.30;99.40;;;;;;4993572;28;20478;-60
2022/08/24 01:02:14;;;;;;;1.38;1.27;;;18.30;99.40;;;;;;4990458;28;20134;-58
2022/08/24 01:04:50;;;;;;;6.07;1.95;;;18.30;99.50;;;;;;4989006;28;20575;-58
2022/08/24 01:07:16;;;;;;;3.53;1.63;;;18.30;99.60;;;;;;4985202;28;20090;-58
2022/08/24 01:09:42;;;;;;;1.77;1.63;;;18.30;99.70;;;;;;4998281;28;20033;-59
2022/08/24 01:12:09;;;;;;;3.45;1.38;;;18.20;99.80;;;;;;4990773;28;20037;-58
2022/08/24 01:14:36;;;;;;;3.60;1.25;;;18.20;99.90;;;;;;4995186;28;20045;-59
2022/08/24 01:19:53;;;;;;;2.88;1.45;;;18.20;99.90;;;;;;4995541;28;20065;-58
2022/08/24 01:22:47;;;;;;;3.90;1.45;;;18.20;99.90;;;;;;4988223;28;20026;-60
2022/08/24 01:25:14;;;;;;;1.48;1.38;;;18.20;99.90;;;;;;4988379;28;20018;-58
2022/08/24 01:27:42;;;;;;;1.58;1.42;;;18.20;99.90;;;;;;4995330;28;20033;-60
2022/08/24 01:30:12;;;;;;;2.17;1.63;;;18.20;99.90;;;;;;4992499;28;20498;-58
2022/08/24 01:32:38;;;;;;;3.67;1.85;;;18.10;99.90;;;;;;4994537;28;20124;-59
2022/08/24 01:35:07;;;;;;;3.83;1.50;;;18.10;99.90;;;;;;4998623;28;20156;-60
2022/08/24 01:37:34;;;;;;;1.55;1.35;;;18.20;99.90;;;;;;4994101;28;20475;-58
2022/08/24 01:40:05;;;;;;;3.20;1.50;;;18.10;99.90;;;;;;5001998;28;20041;-58
2022/08/24 01:42:33;;;;;;;4.50;2.05;;;18.10;99.90;;;;;;5001606;28;20029;-58
2022/08/24 01:44:59;;;;;;;2.35;1.70;;;18.10;99.90;;;;;;4998430;28;20030;-56
2022/08/24 01:47:25;;;;;;;3.42;1.95;;;18.10;99.90;;;;;;5001475;28;20027;-59
2022/08/24 01:49:50;;;;;;;1.80;1.58;;;18.10;99.90;;;;;;4997333;28;20041;-59
2022/08/24 01:52:19;;;;;;;1.85;1.25;;;18.10;99.90;;;;;;4999791;28;20177;-58
2022/08/24 01:54:46;;;;;;;4.03;2.05;;;18.10;99.90;;;;;;4996077;28;20057;-57
2022/08/24 01:57:12;;;;;;;2.78;1.60;;;18.00;99.90;;;;;;5001374;28;20045;-58
2022/08/24 01:59:38;;;;;;;2.05;1.60;;;18.00;99.90;;;;;;5000130;28;20065;-58
2022/08/24 02:02:13;;;;;;;2.60;1.60;;;17.90;99.90;;;;;;4998558;28;20438;-58
2022/08/24 02:04:39;;;;;;;2.63;1.30;;;18.00;99.90;;;;;;4999079;28;20010;-58
2022/08/24 02:07:04;;;;;;;2.17;1.35;;;18.00;99.90;;;;;;4996978;28;20027;-59
2022/08/24 02:09:30;;;;;;;1.92;1.60;;;17.90;99.90;;;;;;4999333;28;20022;-58
2022/08/24 02:11:56;;;;;;;3.22;1.42;;;17.90;99.90;;;;;;4995685;28;20018;-57
2022/08/24 02:14:21;;;;;;;3.08;1.98;;;17.90;99.90;;;;;;5002227;28;20025;-60
2022/08/24 02:16:47;;;;;;;2.67;1.67;;;17.90;99.90;;;;;;4997189;28;20038;-59
2022/08/24 02:19:13;;;;;;;2.70;2.05;;;17.90;99.90;;;;;;5000003;28;20033;-58
2022/08/24 02:21:39;;;;;;;2.13;1.60;;;17.90;99.90;;;;;;4998980;28;20435;-60
2022/08/24 02:24:05;;;;;;;3.50;1.88;;;17.90;99.90;;;;;;4996129;28;20307;-59
2022/08/24 02:26:30;;;;;;;3.45;1.83;;;17.90;99.90;;;;;;4998974;28;20502;-56
2022/08/24 02:28:56;;;;;;;2.67;1.60;;;17.90;99.90;;;;;;4995264;28;20042;-57
2022/08/24 02:31:22;;;;;;;4.18;2.03;;;17.80;99.90;;;;;;5001750;28;20029;-58
2022/08/24 02:33:47;;;;;;;1.77;1.50;;;17.80;99.90;;;;;;4998185;28;20080;-58
2022/08/24 02:36:13;;;;;;;2.13;1.63;;;17.80;99.90;;;;;;4998956;28;20371;-59
2022/08/24 02:38:39;;;;;;;3.67;2.15;;;17.80;99.90;;;;;;4998194;28;20022;-58
2022/08/24 02:41:05;;;;;;;2.20;1.80;;;17.80;99.90;;;;;;5003872;28;20446;-56
2022/08/24 02:43:31;;;;;;;3.97;1.88;;;17.70;99.90;;;;;;4996482;28;20040;-58
2022/08/24 02:45:57;;;;;;;3.95;1.75;;;17.70;99.90;;;;;;5001655;28;20025;-59
2022/08/24 02:48:24;;;;;;;3.05;1.63;;;17.70;99.90;;;;;;4993966;28;20382;-58
2022/08/24 02:50:51;;;;;;;3.33;1.98;;;17.70;99.90;;;;;;5001734;28;20493;-58
2022/08/24 02:53:19;;;;;;;7.03;2.38;;;17.70;99.90;;;;;;4992585;28;20026;-57
2022/08/24 02:55:45;;;;;;;1.95;1.73;;;17.70;99.90;;;;;;5000283;28;20025;-58
2022/08/24 02:58:12;;;;;;;3.42;1.90;;;17.70;99.90;;;;;;5000535;28;20023;-57
2022/08/24 03:00:39;;;;;;;4.38;2.00;;;17.60;99.90;;;;;;4997460;28;20056;-57
2022/08/24 03:03:06;;;;;;;2.97;1.75;;;17.70;99.90;;;;;;4999960;28;20021;-58
2022/08/24 03:05:32;;;;;;;2.28;1.50;;;17.60;99.90;;;;;;4994190;28;20076;-58
2022/08/24 03:07:57;;;;;;;2.80;1.80;;;17.50;99.90;;;;;;4999922;28;20030;-57
2022/08/24 03:10:23;;;;;;;3.22;1.38;;;17.50;99.90;;;;;;4992163;28;20509;-58
2022/08/24 03:12:50;;;;;;;2.40;1.75;;;17.40;99.90;;;;;;4997889;28;20048;-59
2022/08/24 03:15:17;;;;;;;1.73;1.63;;;17.40;99.90;;;;;;4991611;28;20022;-57
2022/08/24 03:17:43;;;;;;;2.30;1.70;;;17.40;99.90;;;;;;4997206;28;20036;-55
2022/08/24 03:20:13;;;;;;;2.40;2.08;;;17.40;99.90;;;;;;4999191;28;20045;-57
2022/08/24 03:22:39;;;;;;;3.17;2.05;;;17.40;99.90;;;;;;4992836;28;20060;-59
2022/08/24 03:25:05;;;;;;;3.05;1.80;;;17.40;99.90;;;;;;4998711;28;20022;-58
2022/08/24 03:27:32;;;;;;;3.45;1.80;;;17.40;99.90;;;;;;4992190;28;20134;-59
2022/08/24 03:29:57;;;;;;;2.72;1.90;;;17.40;99.90;;;;;;4998924;28;20105;-57
2022/08/24 03:32:23;;;;;;;3.05;1.90;;;17.30;99.90;;;;;;4999059;28;20396;-59
2022/08/24 03:34:49;;;;;;;5.28;2.25;;;17.40;99.90;;;;;;4997622;28;20405;-60
2022/08/24 03:37:15;;;;;;;5.45;1.95;;;17.30;99.90;;;;;;4997973;28;20130;-59
2022/08/24 03:39:41;;;;;;;2.72;2.00;;;17.30;99.90;;;;;;4994928;28;20032;-60
2022/08/24 03:42:06;;;;;;;4.38;2.00;;;17.30;99.90;;;;;;5002066;28;20049;-60
2022/08/24 03:44:32;;;;;;;3.85;1.92;;;17.30;99.90;;;;;;4995703;28;20433;-59
2022/08/24 03:46:57;;;;;;;1.77;1.63;;;17.30;99.90;;;;;;4999582;28;20053;-60
2022/08/24 03:49:23;;;;;;;2.58;1.90;;;17.20;99.90;;;;;;4994558;28;20113;-60
2022/08/24 03:51:49;;;;;;;5.28;2.60;;;17.20;99.90;;;;;;4997456;28;20074;-60
2022/08/24 03:54:16;;;;;;;3.15;1.90;;;17.20;99.90;;;;;;4993905;28;20077;-60
2022/08/24 03:56:41;;;;;;;3.83;2.17;;;17.10;99.90;;;;;;4995869;28;20446;-59
2022/08/24 03:59:09;;;;;;;2.88;1.80;;;17.10;99.90;;;;;;5000528;28;20021;-60
2022/08/24 04:01:35;;;;;;;5.00;2.05;;;17.10;99.90;;;;;;4994504;28;20387;-59
2022/08/24 04:04:01;;;;;;;5.47;2.55;;;17.10;99.90;;;;;;4997352;28;20026;-58
2022/08/24 04:06:27;;;;;;;6.15;2.20;;;17.00;99.90;;;;;;4993595;28;20505;-59
2022/08/24 04:08:53;;;;;;;2.05;1.92;;;17.00;99.90;;;;;;4997000;28;20088;-60
2022/08/24 04:11:22;;;;;;;4.10;2.05;;;17.00;99.90;;;;;;4993247;28;20026;-61
2022/08/24 04:13:49;;;;;;;2.35;1.95;;;17.00;99.90;;;;;;4995353;28;20026;-59
2022/08/24 04:16:18;;;;;;;2.42;1.83;;;17.00;99.90;;;;;;4999789;28;20023;-59
2022/08/24 04:18:44;;;;;;;1.73;1.60;;;16.90;99.90;;;;;;4994693;28;20558;-59
2022/08/24 04:21:23;;;;;;;5.38;2.50;;;16.90;99.90;;;;;;4997950;28;20281;-60
2022/08/24 04:23:53;;;;;;;3.88;1.98;;;16.90;99.90;;;;;;4993761;28;20034;-59
2022/08/24 04:26:22;;;;;;;2.45;2.05;;;16.90;99.90;;;;;;4996549;28;20506;-59
2022/08/24 04:28:47;;;;;;;2.13;1.90;;;16.90;99.90;;;;;;4992980;28;20042;-59
2022/08/24 04:31:14;;;;;;;2.40;2.20;;;16.90;99.90;;;;;;4997797;28;20045;-60
2022/08/24 04:33:40;;;;;;;3.78;2.38;;;16.90;99.90;;;;;;4996916;28;20529;-59
2022/08/24 04:36:08;;;;;;;4.30;2.58;;;16.80;99.90;;;;;;4995451;28;20394;-58
2022/08/24 04:38:34;;;;;;;3.33;2.35;;;16.80;99.90;;;;;;4997076;28;20513;-59
2022/08/24 04:41:04;;;;;;;3.28;1.83;;;16.80;99.90;;;;;;5001212;28;20021;-59
2022/08/24 04:43:29;;;;;;;2.95;2.33;;;16.80;99.90;;;;;;4994076;28;20427;-60
2022/08/24 04:45:55;;;;;;;3.65;2.47;;;16.70;99.90;;;;;;4999603;28;20022;-59
2022/08/24 04:48:21;;;;;;;3.67;2.08;;;16.70;99.90;;;;;;4990327;28;20077;-58
2022/08/24 04:50:47;;;;;;;7.53;2.90;;;16.70;99.90;;;;;;4999859;28;20041;-59
2022/08/24 04:53:13;;;;;;;4.93;2.40;;;16.70;99.90;;;;;;4990551;28;20401;-59
2022/08/24 04:55:48;;;;;;;4.38;2.55;;;16.70;99.90;;;;;;4996987;28;20394;-59
2022/08/24 04:58:16;;;;;;;4.30;2.65;;;16.70;99.90;;;;;;4998059;28;20022;-59
2022/08/24 05:00:42;;;;;;;3.13;2.15;;;16.70;99.90;;;;;;4995838;28;20026;-58
2022/08/24 05:03:10;;;;;;;6.20;3.75;;;16.70;99.90;;;;;;4997504;28;20435;-57
2022/08/24 05:05:44;;;;;;;3.03;2.35;;;16.70;99.90;;;;;;4992683;28;20022;-59
2022/08/24 05:08:11;;;;;;;3.58;2.42;;;16.70;99.90;;;;;;4996760;28;20093;-59
2022/08/24 05:10:43;;;;;;;3.88;2.50;;;16.70;99.90;;;;;;4991759;28;20026;-59
2022/08/24 05:13:08;;;;;;;3.33;2.67;;;16.80;99.90;;;;;;4996918;28;20053;-57
2022/08/24 05:15:35;;;;;;;3.25;2.15;;;16.80;99.90;;;;;;5002244;28;20076;-60
2022/08/24 05:18:01;;;;;;;4.65;2.47;;;16.80;99.90;;;;;;5000276;28;20037;-60
2022/08/24 05:20:27;;;;;;;5.45;2.75;;;16.80;99.90;;;;;;5001023;28;20095;-59
2022/08/24 05:22:54;;;;;;;3.33;2.42;;;16.80;99.90;;;;;;4998546;28;20473;-58
2022/08/24 05:25:20;;;;;;;6.57;3.03;;;16.90;99.90;;;;;;5000006;28;20061;-58
2022/08/24 05:27:46;;;;;;;3.60;2.97;;;16.90;99.90;;;;;;4996602;28;20034;-59
2022/08/24 05:30:12;;;;;;;5.03;2.55;;;16.90;99.90;;;;;;4999556;28;20057;-58
2022/08/24 05:32:38;;;;;;;4.50;3.28;;;16.90;99.90;;;;;;5000180;28;20030;-58
2022/08/24 05:35:04;;;;;;;4.65;2.65;;;17.00;99.90;;;;;;4997955;28;20022;-59
2022/08/24 05:37:34;;;;;;;3.83;2.40;;;17.00;99.90;;;;;;4997171;28;20033;-59
2022/08/24 05:40:01;;;;;;;6.18;2.65;;;17.00;99.90;;;;;;5003277;28;20026;-59
2022/08/24 05:42:27;;;;;;;3.53;2.58;;;17.10;99.90;;;;;;5001181;28;20160;-61
2022/08/24 05:44:52;;;;;;;3.95;2.78;;;17.20;99.90;;;;;;4998192;28;20101;-59
2022/08/24 05:47:18;;;;;;;3.92;2.70;;;17.20;99.90;;;;;;5001878;28;20514;-59
2022/08/24 05:49:44;;;;;;;5.63;3.30;;;17.30;99.90;;;;;;4997259;28;20093;-59
2022/08/24 05:52:10;;;;;;;6.07;2.88;;;17.30;99.90;;;;;;4999857;28;20019;-58
2022/08/24 05:54:36;;;;;;;7.25;3.33;;;17.40;99.90;;;;;;4996301;28;20021;-59
2022/08/24 05:57:03;;;;;;;3.90;2.65;;;17.40;99.90;;;;;;5000313;28;20104;-59
2022/08/24 05:59:30;;;;;;;5.00;3.20;;;17.50;99.90;;;;;;5001534;28;20019;-58
2022/08/24 06:01:56;;;;;;;3.20;2.90;;;17.60;99.90;;;;;;4997941;28;20022;-57
2022/08/24 06:04:21;;;;;;;4.68;2.65;;;17.60;99.90;;;;;;5001251;28;20072;-59
2022/08/24 06:06:48;;;;;;;4.03;2.50;;;17.70;99.90;;;;;;4996979;28;20045;-58
2022/08/24 06:09:14;;;;;;;4.53;2.63;;;17.80;99.90;;;;;;4998046;28;20018;-59
2022/08/24 06:11:41;;;;;;;6.18;3.00;;;17.80;99.90;;;;;;4995867;28;20348;-57
2022/08/24 06:14:12;;;;;;;3.17;2.78;;;17.90;99.90;;;;;;5000214;28;20034;-58
2022/08/24 06:16:41;;;;;;;6.53;3.00;;;18.00;99.90;;;;;;5000047;28;20054;-58
2022/08/24 06:19:08;;;;;;;3.45;2.60;;;18.10;99.90;;;;;;4998596;28;20038;-58
2022/08/24 06:21:34;;;;;;;3.60;2.53;;;18.20;99.90;;;;;;4999250;28;20018;-59
2022/08/24 06:24:00;;;;;;;5.70;2.65;;;18.20;99.90;;;;;;4996144;28;20379;-59
2022/08/24 06:29:11;;;;;;;4.63;2.55;;;18.40;99.90;;;;;;4996017;28;20084;-60
2022/08/24 06:31:39;;;;;;;5.40;2.95;;;18.50;99.90;;;;;;5003691;28;20054;-60
2022/08/24 06:34:06;;;;;;;3.10;2.65;;;18.60;99.90;;;;;;4996024;28;20026;-57
2022/08/24 06:36:32;;;;;;;7.57;2.40;;;18.60;99.90;;;;;;4997494;28;20518;-58
2022/08/24 06:38:57;;;;;;;2.60;2.33;;;18.70;99.90;;;;;;4987293;28;20030;-58
2022/08/24 06:41:24;;;;;;;5.43;2.60;;;18.70;99.90;;;;;;5004017;28;20521;-59
2022/08/24 06:43:50;;;;;;;4.72;2.42;;;18.90;99.90;;;;;;4999053;28;20026;-60
2022/08/24 06:46:15;;;;;;;3.85;2.47;;;19.00;99.90;;;;;;4999731;28;20084;-59
2022/08/24 06:48:41;;;;;;;6.72;2.60;;;19.10;99.90;;;;;;4996749;28;20025;-60
2022/08/24 06:51:12;;;;;;;5.15;2.58;;;19.20;99.90;;;;;;4999471;28;20026;-59
2022/08/24 06:53:38;;;;;;;5.22;2.63;;;19.30;99.90;;;;;;4994554;28;20145;-60
2022/08/24 06:56:04;;;;;;;4.13;2.40;;;19.40;99.90;;;;;;4998766;28;20084;-60
2022/08/24 06:58:31;;;;;;;5.30;2.80;;;19.60;99.90;;;;;;4999925;28;20018;-60
2022/08/24 07:00:58;;;;;;;3.90;2.50;;;19.70;99.90;;;;;;4998707;28;20022;-60
2022/08/24 07:03:24;;;;;;;3.47;2.65;;;19.80;99.90;;;;;;4998905;28;20073;-60
2022/08/24 07:05:56;;;;;;;4.10;2.83;;;19.90;99.90;;;;;;4996564;28;20061;-61
2022/08/24 07:08:22;;;;;;;6.50;2.10;;;20.10;99.90;;;;;;4998004;28;20486;-60
2022/08/24 07:10:49;;;;;;;2.58;2.20;;;20.20;99.90;;;;;;4995256;28;20394;-60
2022/08/24 07:13:14;;;;;;;2.10;1.98;;;20.40;99.90;;;;;;4988957;28;20023;-60
2022/08/24 07:15:41;;;;;;;5.10;2.20;;;20.50;99.90;;;;;;5000439;28;20081;-60
2022/08/24 07:18:11;;;;;;;3.50;2.30;;;20.70;99.90;;;;;;4996809;28;20080;-61
2022/08/24 07:20:37;;;;;;;3.45;2.42;;;20.80;99.90;;;;;;4998489;28;20022;-56
2022/08/24 07:23:04;;;;;;;3.50;2.28;;;21.00;99.90;;;;;;4995846;28;20028;-58
2022/08/24 07:25:30;;;;;;;3.95;2.38;;;21.10;99.90;;;;;;4997807;28;20030;-56
2022/08/24 07:27:58;;;;;;;3.55;2.38;;;21.20;99.90;;;;;;4994227;28;20030;-60
2022/08/24 07:30:24;;;;;;;3.67;2.30;;;21.40;99.90;;;;;;4996527;28;20029;-58
2022/08/24 07:32:50;;;;;;;4.15;2.00;;;21.50;99.90;;;;;;5000687;28;20076;-59
2022/08/24 07:35:16;;;;;;;3.00;2.05;;;21.70;99.90;;;;;;4995152;28;20434;-59
2022/08/24 07:37:41;;;;;;;3.22;2.75;;;21.90;99.90;;;;;;4998053;28;20441;-59
2022/08/24 07:40:08;;;;;;;2.60;1.85;;;22.00;99.90;;;;;;4998048;28;20029;-59
2022/08/24 07:42:33;;;;;;;3.45;2.03;;;22.10;99.90;;;;;;4998156;28;20156;-59
2022/08/24 07:44:59;;;;;;;6.22;1.88;;;22.20;99.90;;;;;;4994403;28;20105;-59
2022/08/24 07:47:25;;;;;;;5.10;2.38;;;22.40;99.90;;;;;;4999259;28;20106;-57
2022/08/24 07:49:50;;;;;;;3.83;2.13;;;22.50;99.90;;;;;;4995085;28;20057;-60
2022/08/24 07:52:16;;;;;;;4.88;1.98;;;22.60;99.90;;;;;;4997377;28;20621;-57
2022/08/24 07:54:41;;;;;;;3.85;1.77;;;22.80;99.90;;;;;;4993086;28;20050;-59
2022/08/24 07:57:07;;;;;;;3.15;2.00;;;22.90;99.90;;;;;;4999541;28;20037;-59
2022/08/24 07:59:34;;;;;;;4.63;1.80;;;23.20;99.90;;;;;;4998344;28;20109;-58
2022/08/24 08:02:00;;;;;;;2.70;1.92;;;23.30;99.90;;;;;;4993864;28;20478;-59
2022/08/24 08:04:26;;;;;;;3.83;2.35;;;23.60;99.90;;;;;;4998286;28;20105;-60
2022/08/24 08:06:53;;;;;;;2.03;1.83;;;23.80;99.90;;;;;;4995695;28;20239;-61
2022/08/24 08:09:19;;;;;;;2.65;1.70;;;23.90;99.90;;;;;;4990686;28;20100;-59
2022/08/24 08:11:44;;;;;;;3.20;1.98;;;24.10;99.90;;;;;;4999239;28;20454;-59
2022/08/24 08:14:10;;;;;;;4.45;2.03;;;24.20;99.90;;;;;;4991469;28;20283;-59
2022/08/24 08:16:39;;;;;;;4.00;2.30;;;24.30;99.90;;;;;;4996785;28;20147;-59
2022/08/24 08:19:04;;;;;;;4.32;2.60;;;24.40;99.90;;;;;;4999386;28;20026;-61
2022/08/24 08:24:14;;;;;;;3.65;2.00;;;24.50;99.90;;;;;;4988728;28;20045;-59
2022/08/24 08:26:42;;;;;;;3.72;2.58;;;24.70;99.90;;;;;;4994205;28;20419;-61
2022/08/24 08:29:09;;;;;;;4.30;2.40;;;24.80;99.90;;;;;;4997468;28;20409;-58
2022/08/24 08:31:35;;;;;;;3.92;2.40;;;25.00;99.90;;;;;;4991302;28;20018;-59
2022/08/24 08:34:01;;;;;;;4.60;2.35;;;25.10;99.90;;;;;;4997201;28;20034;-59
2022/08/24 08:36:26;;;;;;;2.95;2.20;;;25.30;99.90;;;;;;4997981;28;20097;-60
2022/08/24 08:38:52;;;;;;;3.15;2.30;;;25.50;99.90;;;;;;4996263;28;20037;-59
2022/08/24 08:41:57;;;;;;;2.92;2.13;;;25.70;99.70;;;;;;4996480;28;20019;-61
2022/08/24 08:44:51;;;;;;;5.88;2.15;;;25.90;99.50;;;;;;4987953;28;20084;-59
2022/08/24 08:47:42;;;;;;;3.63;2.20;;;26.10;98.90;;;;;;4997625;28;20030;-58
2022/08/24 08:50:24;;;;;;;2.40;1.88;;;26.20;98.30;;;;;;4994585;28;20122;-61
2022/08/24 08:53:04;;;;;;;3.58;1.90;;;26.10;97.70;;;;;;4993618;28;20018;-61
2022/08/24 08:55:43;;;;;;;2.30;1.85;;;26.10;98.00;;;;;;4995614;28;20026;-59
2022/08/24 08:58:18;;;;;;;3.08;2.00;;;26.10;97.80;;;;;;4998839;28;20073;-58
2022/08/24 09:01:08;;;;;;;2.60;2.40;;;26.10;97.70;;;;;;4995454;28;20125;-58
2022/08/24 09:03:57;;;;;;;2.47;1.98;;;26.10;97.60;;;;;;4992070;28;20024;-59
2022/08/24 09:06:44;;;;;;;2.15;1.92;;;26.10;97.60;;;;;;4986215;28;20022;-60
2022/08/24 09:09:44;;;;;;;2.80;2.35;;;26.30;97.60;;;;;;4997323;28;20474;-60
2022/08/24 09:12:49;;;;;;;3.55;2.20;;;26.30;97.50;;;;;;4993050;28;20072;-60
2022/08/24 09:15:29;;;;;;;2.25;2.00;;;26.30;97.30;;;;;;5009870;28;20112;-58
2022/08/24 09:18:17;;;;;;;3.95;2.03;;;26.40;97.70;;;;;;4995873;28;20032;-58
2022/08/24 09:21:07;;;;;;;3.97;1.95;;;26.40;97.10;;;;;;4997438;28;20026;-61
2022/08/24 09:23:55;;;;;;;4.72;2.10;;;26.50;97.40;;;;;;4988173;28;20073;-58
2022/08/24 09:26:28;;;;;;;3.65;2.15;;;26.60;96.90;;;;;;4996121;28;20029;-58
2022/08/24 09:29:11;;;;;;;5.18;2.63;;;26.60;96.70;;;;;;4992514;28;20034;-59
2022/08/24 09:32:26;;;;;;;4.45;2.35;;;26.40;97.00;;;;;;4990570;28;20018;-60
2022/08/24 09:35:00;;;;;;;3.25;1.80;;;26.40;96.90;;;;;;4975435;28;20049;-59
2022/08/24 09:37:53;;;;;;;3.45;2.30;;;26.40;96.80;;;;;;4997063;28;20110;-59
2022/08/24 09:40:33;;;;;;;3.33;2.20;;;26.40;96.30;;;;;;4996490;28;20018;-60
2022/08/24 09:43:18;;;;;;;3.03;2.22;;;26.40;96.60;;;;;;4993388;28;20054;-58
2022/08/24 09:46:17;;;;;;;3.22;1.95;;;26.40;96.30;;;;;;4991054;28;20053;-59
2022/08/24 09:48:51;;;;;;;5.35;2.13;;;26.40;96.20;;;;;;4991629;28;20030;-60
2022/08/24 09:51:41;;;;;;;3.42;2.40;;;26.40;96.60;;;;;;4988224;28;20022;-60
2022/08/24 09:54:47;;;;;;;3.28;2.03;;;26.40;96.10;;;;;;4993080;28;20018;-60
2022/08/24 09:57:46;;;;;;;5.07;2.13;;;26.50;95.60;;;;;;4998498;28;20025;-61
2022/08/24 10:00:21;;;;;;;2.83;2.08;;;26.50;95.10;;;;;;4994824;28;20478;-59
2022/08/24 10:03:04;;;;;;;3.10;2.17;;;26.50;95.20;;;;;;4995281;28;20434;-59
2022/08/24 10:06:02;;;;;;;4.00;2.00;;;26.50;94.90;;;;;;4990785;28;20018;-59
2022/08/24 10:09:13;;;;;;;3.30;2.03;;;26.50;94.70;;;;;;4993034;28;20421;-60
2022/08/24 10:11:49;;;;;;;2.38;2.10;;;26.50;94.50;;;;;;4991334;28;20030;-60
2022/08/24 10:14:42;;;;;;;4.75;2.20;;;26.50;95.10;;;;;;4999262;28;20201;-59
2022/08/24 10:17:37;;;;;;;2.88;1.70;;;26.50;94.60;;;;;;4994536;28;20371;-59
2022/08/24 10:20:16;;;;;;;2.25;2.00;;;26.50;93.70;;;;;;4972633;28;20034;-60
2022/08/24 10:23:10;;;;;;;3.13;2.30;;;26.40;94.60;;;;;;4996561;28;20022;-60
2022/08/24 10:26:32;;;;;;;2.80;1.95;;;26.50;95.10;;;;;;4993935;28;20032;-59
2022/08/24 10:29:16;;;;;;;2.47;1.73;;;26.40;93.60;;;;;;4948562;29;20042;-58
2022/08/24 10:31:53;;;;;;;1.80;1.70;;;26.40;94.20;;;;;;4928523;29;20024;-59
2022/08/24 10:34:46;;;;;;;5.43;1.98;;;26.50;94.80;;;;;;4963312;28;20035;-58
2022/08/24 10:37:30;;;;;;;4.93;2.30;;;26.60;95.00;;;;;;4991686;28;20027;-60
2022/08/24 10:40:09;;;;;;;2.45;1.85;;;26.60;95.10;;;;;;4998290;28;20018;-60
2022/08/24 10:43:33;;;;;;;2.03;1.85;;;26.60;94.60;;;;;;4999982;28;20390;-59
2022/08/24 10:46:44;;;;;;;3.03;2.25;;;26.70;93.90;;;;;;4973097;28;20397;-59
2022/08/24 10:49:28;;;;;;;2.17;1.92;;;26.60;94.30;;;;;;4947276;29;20031;-61
2022/08/24 10:52:15;;;;;;;3.65;2.05;;;26.60;94.80;;;;;;4944600;29;20043;-60
2022/08/24 10:54:40;;;;;;;2.40;1.95;;;26.60;94.70;;;;;;4980015;28;20034;-58
2022/08/24 10:57:35;;;;;;;2.25;1.80;;;26.60;94.40;;;;;;4999458;28;20568;-57
2022/08/24 11:00:10;;;;;;;4.18;2.33;;;26.60;93.90;;;;;;4996340;28;20092;-60
2022/08/24 11:02:39;;;;;;;2.72;1.98;;;26.60;94.20;;;;;;5001931;28;20470;-60
2022/08/24 11:05:13;;;;;;;5.97;1.95;;;26.60;94.30;;;;;;4994088;28;20359;-59
2022/08/24 11:08:04;;;;;;;2.20;1.90;;;26.50;93.60;;;;;;5000397;28;20030;-59
2022/08/24 11:10:34;;;;;;;1.80;1.50;;;26.60;93.80;;;;;;4986021;28;20027;-58
2022/08/24 11:13:32;;;;;;;2.78;1.90;;;26.60;93.70;;;;;;4998526;28;20025;-58
2022/08/24 11:16:00;;;;;;;4.05;1.88;;;26.70;92.90;;;;;;4963339;28;20121;-61
2022/08/24 11:18:45;;;;;;;1.75;1.63;;;26.70;92.70;;;;;;4996142;28;20031;-59
2022/08/24 11:21:18;;;;;;;2.33;1.98;;;26.70;92.60;;;;;;4999583;28;20022;-62
2022/08/24 11:23:45;;;;;;;2.88;2.05;;;26.70;93.20;;;;;;4995212;28;20073;-60
2022/08/24 11:26:20;;;;;;;2.17;1.90;;;26.80;93.20;;;;;;4998513;28;20025;-57
2022/08/24 11:28:59;;;;;;;2.28;1.48;;;26.80;92.60;;;;;;5007349;23;20113;-45
2022/08/24 11:31:39;;;;;;;2.22;1.70;;;26.90;93.10;;;;;;4998564;28;20014;-43
2022/08/24 11:34:13;;;;;;;2.05;1.65;;;26.90;92.70;;;;;;4992713;28;20032;-45
2022/08/24 11:36:39;;;;;;;2.78;1.70;;;27.10;92.20;;;;;;4999555;28;20486;-43
2022/08/24 11:39:18;;;;;;;1.80;1.42;;;27.10;91.80;;;;;;4989952;28;20034;-43
2022/08/24 11:42:21;;;;;;;3.38;1.73;;;27.10;91.70;;;;;;4990394;28;20034;-44
2022/08/24 11:45:13;;;;;;;6.60;2.08;;;27.10;91.90;;;;;;4983674;28;20022;-44
2022/08/24 11:48:01;;;;;;;3.40;2.17;;;27.20;92.60;;;;;;4981637;28;20411;-43
2022/08/24 11:50:38;;;;;;;2.75;1.70;;;27.20;92.40;;;;;;4984487;28;20026;-43
2022/08/24 11:53:23;;;;;;;2.13;1.50;;;27.20;91.60;;;;;;4988971;28;20025;-46
2022/08/24 11:56:33;;;;;;;2.80;1.58;;;27.20;91.50;;;;;;4987598;28;20046;-44
2022/08/24 11:59:01;;;;;;;3.15;2.25;;;27.30;91.10;;;;;;4986474;28;20097;-47
2022/08/24 12:01:46;;;;;;;3.28;1.90;;;27.40;91.00;;;;;;4987184;28;20025;-47
2022/08/24 12:04:22;;;;;;;1.48;1.38;;;27.40;90.80;;;;;;4989647;28;20486;-44
2022/08/24 12:07:06;;;;;;;2.67;1.45;;;27.50;90.70;;;;;;4986798;28;20049;-49
2022/08/24 12:09:38;;;;;;;2.25;1.55;;;27.50;91.00;;;;;;4979555;28;20022;-46
2022/08/24 12:12:12;;;;;;;2.53;1.67;;;27.50;90.50;;;;;;4983435;28;20030;-46
2022/08/24 12:14:54;;;;;;;3.50;1.73;;;27.50;90.70;;;;;;4980788;28;20033;-45
2022/08/24 12:17:29;;;;;;;3.45;1.92;;;27.50;90.00;;;;;;4976784;28;20024;-43
2022/08/24 12:20:04;;;;;;;2.75;1.60;;;27.60;90.20;;;;;;4989647;28;20034;-45
2022/08/24 12:22:31;;;;;;;4.07;1.75;;;27.70;90.30;;;;;;4984995;28;20015;-43
2022/08/24 12:26:00;;;;;;;2.38;1.60;;;27.70;90.40;;;;;;4988427;28;20561;-43
2022/08/24 12:27:50;;;;;;;4.30;2.38;;;27.70;89.90;;;;;;4984672;28;20026;-45
2022/08/24 12:30:16;;;;;;;3.72;1.48;;;27.80;89.10;;;;;;4974839;28;20027;-44
2022/08/24 12:33:02;;;;;;;2.25;1.90;;;27.80;89.50;;;;;;4989550;28;20487;-48
2022/08/24 12:35:47;;;;;;;1.52;1.33;;;27.90;89.60;;;;;;4977785;28;20038;-45
2022/08/24 12:38:26;;;;;;;1.48;1.35;;;27.90;88.40;;;;;;4989277;28;20030;-44
2022/08/24 12:40:56;;;;;;;2.63;1.63;;;28.00;86.90;;;;;;4985400;28;20033;-45
2022/08/24 12:43:35;;;;;;;1.70;1.52;;;28.10;87.40;;;;;;4986496;28;20069;-47
2022/08/24 12:46:02;;;;;;;1.63;1.50;;;28.10;85.80;;;;;;4971718;28;20565;-48
2022/08/24 12:49:02;;;;;;;3.42;1.60;;;28.10;85.80;;;;;;4985582;28;20019;-46
2022/08/24 12:52:01;;;;;;;1.80;1.55;;;28.20;85.90;;;;;;4977767;28;20430;-44
2022/08/24 12:55:03;;;;;;;1.83;1.60;;;28.40;85.90;;;;;;4985111;28;20030;-47
2022/08/24 12:57:43;;;;;;;4.60;1.98;;;28.60;84.40;;;;;;4986300;28;20514;-45
2022/08/24 13:00:21;;;;;;;3.08;1.40;;;28.60;81.40;;;;;;4987400;28;20056;-45
2022/08/24 13:03:06;;;;;;;3.78;1.75;;;28.70;80.90;;;;;;4973600;28;20030;-48
2022/08/24 13:05:59;;;;;;;2.38;1.50;;;28.70;79.50;;;;;;4976756;28;20026;-43
2022/08/24 13:08:45;;;;;;;2.60;1.38;;;28.80;80.00;;;;;;4975162;28;20076;-47
2022/08/24 13:11:28;;;;;;;1.92;1.35;;;28.80;79.70;;;;;;4983989;28;20022;-49
2022/08/24 13:13:57;;;;;;;1.83;1.45;;;28.80;79.60;;;;;;4986637;28;20399;-45
2022/08/24 13:16:56;;;;;;;1.45;1.30;;;28.90;80.10;;;;;;4989890;28;20037;-47
2022/08/24 13:19:22;;;;;;;2.10;1.33;;;29.00;80.40;;;;;;4984214;28;20019;-45
2022/08/24 13:21:58;;;;;;;1.55;1.30;;;29.10;79.50;;;;;;4980717;28;20019;-47
2022/08/24 13:24:29;;;;;;;2.85;1.55;;;29.10;77.50;;;;;;4982093;28;20081;-46